< < Back
Terminal Aerodrome Forecast


Current Version              Previous Versions:   1  2  3  4  5  6  7  8  9  

Terminal Aerodrome Forecast

950
FTUS42 KGSP 221729
TAFGSP
TAF
KGSP 221729Z 2218/2318 13004KT P6SM FEW250
     FM230200 04004KT P6SM BKN100
     FM231100 04007KT P6SM -RA OVC050
     FM231300 04008KT P6SM -RA OVC017
     FM231500 04008KT 5SM RA BR OVC008=

Latest METAR

583
SAUS70 KWBC 230200 RRN
MTRGSP
METAR KGSP 230153Z 35003KT 10SM BKN042 07/M04 A3032 RMK AO2 SLP270
T00721039


USA.gov is the U.S. government's official web portal to all federal, state and local government web resources and services.